createdAt,value
2023-05-02T00:00:37.567Z,39.5
2023-05-02T00:01:24.971Z,39.5
2023-05-02T00:02:12.456Z,39.5
2023-05-02T00:03:00.029Z,39.5
2023-05-02T00:03:47.916Z,39.5
2023-05-02T00:04:35.620Z,39.5
2023-05-02T00:05:23.078Z,39.5
2023-05-02T00:06:10.602Z,39.5
2023-05-02T00:06:58.135Z,39.5
2023-05-02T00:07:45.772Z,39.5
2023-05-02T00:08:33.181Z,40.0
2023-05-02T00:09:20.596Z,39.5
2023-05-02T00:10:08.001Z,39.5
2023-05-02T00:10:55.458Z,39.5
2023-05-02T00:11:42.870Z,39.5
2023-05-02T00:12:30.295Z,39.5
2023-05-02T00:13:17.725Z,39.5
2023-05-02T00:14:05.150Z,39.5
2023-05-02T00:14:52.582Z,39.5
2023-05-02T00:15:40.020Z,39.5
2023-05-02T00:16:27.482Z,39.5
2023-05-02T00:17:14.938Z,39.5
2023-05-02T00:18:02.512Z,39.5
2023-05-02T00:18:50.707Z,39.5
2023-05-02T00:19:38.093Z,39.5
2023-05-02T00:20:25.524Z,39.5
2023-05-02T00:21:12.931Z,39.5
2023-05-02T00:22:00.332Z,39.5
2023-05-02T00:22:47.738Z,39.5
2023-05-02T00:23:35.154Z,39.5
2023-05-02T00:24:22.778Z,39.5
2023-05-02T00:25:10.226Z,39.5
2023-05-02T00:25:57.914Z,39.5
2023-05-02T00:26:45.467Z,39.5
2023-05-02T00:27:32.873Z,39.5
2023-05-02T00:28:20.332Z,39.5
2023-05-02T00:29:07.747Z,39.5
2023-05-02T00:29:55.212Z,39.5
2023-05-02T00:30:42.669Z,39.5
2023-05-02T00:31:30.132Z,39.6
2023-05-02T00:32:17.536Z,39.5
2023-05-02T00:33:04.983Z,39.5
2023-05-02T00:33:52.419Z,39.5
2023-05-02T00:34:39.835Z,39.5
2023-05-02T00:35:27.230Z,39.5
2023-05-02T00:36:14.638Z,39.5
2023-05-02T00:37:02.074Z,39.5
2023-05-02T00:37:49.498Z,39.5
2023-05-02T00:38:36.915Z,39.5
2023-05-02T00:39:24.315Z,39.5
2023-05-02T00:40:11.726Z,39.5
2023-05-02T00:40:59.143Z,39.5
2023-05-02T00:41:46.549Z,39.5
2023-05-02T00:42:33.990Z,39.5
2023-05-02T00:43:21.408Z,39.5
2023-05-02T00:44:08.838Z,39.5
2023-05-02T00:44:56.231Z,39.5
2023-05-02T00:45:43.671Z,39.5
2023-05-02T00:46:31.205Z,39.5
2023-05-02T00:47:18.675Z,39.5
2023-05-02T00:48:06.117Z,39.5
2023-05-02T00:48:53.566Z,39.6
2023-05-02T00:49:41.008Z,39.6
2023-05-02T00:50:28.396Z,39.6
2023-05-02T00:51:15.781Z,39.6
2023-05-02T00:52:03.182Z,39.6
2023-05-02T00:52:50.625Z,39.5
2023-05-02T00:53:38.062Z,39.5
2023-05-02T00:54:25.474Z,39.6
2023-05-02T00:55:12.899Z,39.6
2023-05-02T00:56:00.339Z,39.6
2023-05-02T00:56:47.777Z,39.6
2023-05-02T00:57:35.179Z,39.6
2023-05-02T00:58:22.615Z,39.6
2023-05-02T00:59:10.030Z,39.5
2023-05-02T00:59:57.686Z,39.6
2023-05-02T01:00:45.278Z,39.6
2023-05-02T01:01:32.713Z,39.6
2023-05-02T01:02:20.192Z,39.6
2023-05-02T01:03:07.821Z,39.6
2023-05-02T01:03:55.559Z,39.6
2023-05-02T01:04:43.151Z,39.6
2023-05-02T01:05:30.570Z,39.5
2023-05-02T01:06:18.156Z,39.6
2023-05-02T01:07:05.718Z,39.6
2023-05-02T01:07:53.288Z,39.6
2023-05-02T01:08:40.695Z,39.6
2023-05-02T01:09:28.103Z,39.6
2023-05-02T01:10:15.502Z,40.1
2023-05-02T01:11:02.908Z,39.6
2023-05-02T01:11:50.337Z,39.6
2023-05-02T01:12:37.779Z,39.6
2023-05-02T01:13:25.203Z,39.6
2023-05-02T01:14:12.641Z,39.6
2023-05-02T01:15:00.064Z,39.6
2023-05-02T01:15:47.509Z,39.6
2023-05-02T01:16:34.975Z,39.6
2023-05-02T01:17:22.487Z,39.6
2023-05-02T01:18:10.020Z,39.6
2023-05-02T01:18:57.464Z,39.6
2023-05-02T01:19:44.899Z,39.6
2023-05-02T01:20:32.314Z,39.6
2023-05-02T01:21:19.723Z,39.6
2023-05-02T01:22:07.140Z,39.7
2023-05-02T01:22:54.705Z,39.6
2023-05-02T01:23:42.126Z,39.6
2023-05-02T01:24:29.566Z,39.6
2023-05-02T01:25:17.008Z,39.6
2023-05-02T01:26:04.436Z,39.6
2023-05-02T01:26:51.847Z,39.6
2023-05-02T01:27:39.257Z,39.6
2023-05-02T01:28:26.685Z,39.6
2023-05-02T01:29:14.103Z,39.6
2023-05-02T01:30:01.635Z,39.6
2023-05-02T01:30:49.271Z,39.6
2023-05-02T01:31:36.874Z,39.6
2023-05-02T01:32:24.621Z,39.6
2023-05-02T01:33:12.067Z,39.6
2023-05-02T01:33:59.543Z,39.6
2023-05-02T01:34:46.944Z,39.6
2023-05-02T01:35:34.346Z,39.7
2023-05-02T01:36:21.765Z,39.6
2023-05-02T01:37:09.154Z,39.6
2023-05-02T01:37:56.560Z,39.6
2023-05-02T01:38:43.978Z,39.6
2023-05-02T01:39:31.388Z,39.6
2023-05-02T01:40:18.805Z,39.7
2023-05-02T01:41:06.226Z,39.7
2023-05-02T01:41:53.624Z,39.7
2023-05-02T01:42:41.071Z,39.7
2023-05-02T01:43:28.464Z,39.7
2023-05-02T01:44:15.866Z,39.7
2023-05-02T01:45:03.266Z,39.7
2023-05-02T01:45:50.675Z,39.7
2023-05-02T01:46:38.190Z,39.7
2023-05-02T01:47:25.721Z,39.7
2023-05-02T01:48:13.146Z,39.7
2023-05-02T01:49:00.599Z,39.7
2023-05-02T01:49:48.063Z,39.7
2023-05-02T01:50:35.515Z,39.8
2023-05-02T01:51:22.972Z,39.7
2023-05-02T01:52:10.366Z,39.6
2023-05-02T01:52:57.781Z,39.6
2023-05-02T01:53:45.206Z,39.7
2023-05-02T01:54:32.621Z,39.7
2023-05-02T01:55:20.036Z,39.7
2023-05-02T01:56:07.451Z,39.7
2023-05-02T01:56:54.854Z,39.7
2023-05-02T01:57:42.272Z,39.7
2023-05-02T01:58:29.719Z,39.7
2023-05-02T01:59:17.135Z,39.7
2023-05-02T02:00:04.583Z,39.7
2023-05-02T02:00:52.034Z,39.7
2023-05-02T02:01:39.601Z,39.7
2023-05-02T02:02:27.111Z,39.7
2023-05-02T02:03:14.680Z,39.7
2023-05-02T02:04:02.412Z,39.7
2023-05-02T02:04:49.899Z,39.7
2023-05-02T02:05:37.336Z,39.7
2023-05-02T02:06:24.815Z,39.7
2023-05-02T02:07:12.290Z,39.7
2023-05-02T02:07:59.715Z,39.7
2023-05-02T02:08:47.142Z,39.7
2023-05-02T02:09:34.542Z,39.7
2023-05-02T02:10:21.964Z,39.7
2023-05-02T02:11:09.396Z,39.8
2023-05-02T02:11:56.805Z,39.7
2023-05-02T02:12:44.232Z,39.7
2023-05-02T02:13:31.640Z,39.7
2023-05-02T02:14:19.067Z,39.7
2023-05-02T02:15:06.467Z,39.7
2023-05-02T02:15:53.921Z,39.7
2023-05-02T02:16:41.381Z,39.8
2023-05-02T02:17:28.894Z,39.8
2023-05-02T02:18:16.452Z,39.8
2023-05-02T02:19:03.876Z,39.8
2023-05-02T02:19:51.277Z,39.8
2023-05-02T02:20:38.710Z,39.8
2023-05-02T02:21:26.145Z,39.9
2023-05-02T02:22:13.565Z,39.8
2023-05-02T02:23:00.974Z,39.8
2023-05-02T02:23:48.384Z,39.9
2023-05-02T02:31:20.874Z,39.9
2023-05-02T02:38:53.347Z,40.1
2023-05-02T02:46:25.874Z,40.2
2023-05-02T02:53:58.357Z,40.2
2023-05-02T03:01:30.825Z,40.2
2023-05-02T03:09:03.270Z,40.2
2023-05-02T03:16:35.891Z,40.3
2023-05-02T03:24:08.468Z,40.3
2023-05-02T03:31:40.970Z,40.3
2023-05-02T03:39:13.428Z,40.4
2023-05-02T03:46:45.905Z,40.4
2023-05-02T03:54:18.341Z,40.5
2023-05-02T04:01:50.907Z,40.4
2023-05-02T04:09:23.352Z,40.5
2023-05-02T04:16:55.823Z,40.5
2023-05-02T04:20:58.201Z,40.5
2023-05-02T04:21:45.638Z,40.5
2023-05-02T04:22:33.061Z,40.5
2023-05-02T04:23:20.461Z,40.5
2023-05-02T04:24:07.912Z,40.0
2023-05-02T04:24:55.341Z,39.8
2023-05-02T04:25:42.755Z,39.8
2023-05-02T04:26:30.188Z,39.7
2023-05-02T04:27:17.608Z,39.8
2023-05-02T04:28:04.993Z,39.8
2023-05-02T04:28:52.389Z,39.9
2023-05-02T04:29:39.818Z,39.9
2023-05-02T04:30:27.234Z,39.7
2023-05-02T04:31:14.715Z,39.4
2023-05-02T04:32:02.159Z,39.5
2023-05-02T04:32:49.606Z,39.5
2023-05-02T04:33:37.044Z,39.3
2023-05-02T04:34:24.466Z,39.5
2023-05-02T04:35:11.881Z,39.6
2023-05-02T04:35:59.326Z,39.6
2023-05-02T04:36:46.764Z,39.7
2023-05-02T04:37:34.182Z,39.8
2023-05-02T04:38:21.616Z,40.0
2023-05-02T04:39:09.020Z,40.0
2023-05-02T04:39:56.435Z,40.0
2023-05-02T04:40:43.876Z,40.1
2023-05-02T04:41:31.299Z,40.2
2023-05-02T04:42:18.774Z,40.3
2023-05-02T04:43:06.197Z,40.3
2023-05-02T04:43:53.739Z,40.3
2023-05-02T04:44:41.168Z,40.4
2023-05-02T04:45:28.591Z,40.4
2023-05-02T04:46:16.069Z,40.5
2023-05-02T04:47:03.528Z,40.6
2023-05-02T04:47:51.013Z,40.8
2023-05-02T04:48:38.484Z,40.8
2023-05-02T04:49:25.914Z,40.8
2023-05-02T04:50:13.317Z,40.8
2023-05-02T04:51:00.780Z,40.7
2023-05-02T04:51:48.468Z,40.7
2023-05-02T04:52:35.878Z,40.7
2023-05-02T04:53:23.283Z,40.7
2023-05-02T04:54:10.871Z,40.8
2023-05-02T04:54:59.212Z,40.8
2023-05-02T04:55:46.684Z,40.8
2023-05-02T04:56:34.138Z,41.0
2023-05-02T04:57:23.191Z,41.1
2023-05-02T04:58:10.668Z,41.1
2023-05-02T04:58:58.219Z,41.1
2023-05-02T04:59:45.626Z,41.0
2023-05-02T05:00:33.056Z,40.8
2023-05-02T05:01:20.476Z,40.7
2023-05-02T05:02:08.069Z,40.9
2023-05-02T05:02:55.788Z,40.8
2023-05-02T05:03:43.840Z,40.9
2023-05-02T05:04:31.332Z,40.9
2023-05-02T05:05:18.808Z,40.9
2023-05-02T05:06:06.337Z,40.9
2023-05-02T05:06:53.852Z,41.0
2023-05-02T05:07:41.304Z,41.0
2023-05-02T05:08:28.763Z,41.0
2023-05-02T05:09:16.251Z,40.4
2023-05-02T05:10:03.923Z,39.7
2023-05-02T05:10:51.340Z,39.4
2023-05-02T05:11:38.764Z,39.2
2023-05-02T05:12:26.210Z,38.9
2023-05-02T05:13:13.609Z,39.1
2023-05-02T05:14:01.571Z,39.0
2023-05-02T05:14:48.975Z,38.7
2023-05-02T05:15:36.442Z,38.6
2023-05-02T05:16:24.004Z,38.7
2023-05-02T05:17:11.432Z,38.4
2023-05-02T05:17:58.901Z,38.4
2023-05-02T05:18:46.357Z,38.3
2023-05-02T05:19:33.982Z,38.2
2023-05-02T05:20:21.673Z,38.2
2023-05-02T05:21:09.132Z,38.4
2023-05-02T05:21:56.559Z,38.4
2023-05-02T05:22:43.974Z,38.5
2023-05-02T05:23:31.419Z,38.4
2023-05-02T05:24:19.204Z,38.3
2023-05-02T05:25:06.628Z,38.2
2023-05-02T05:25:54.199Z,38.0
2023-05-02T05:26:41.622Z,38.0
2023-05-02T05:27:31.016Z,37.9
2023-05-02T05:28:18.922Z,38.1
2023-05-02T05:29:06.408Z,38.0
2023-05-02T05:29:53.893Z,38.0
2023-05-02T05:30:41.321Z,38.2
2023-05-02T05:31:28.756Z,38.4
2023-05-02T05:32:16.233Z,38.2
2023-05-02T05:33:03.764Z,38.4
2023-05-02T05:33:51.255Z,38.6
2023-05-02T05:34:38.800Z,38.5
2023-05-02T05:35:26.237Z,38.6
2023-05-02T05:36:13.656Z,38.6
2023-05-02T05:37:01.065Z,38.9
2023-05-02T05:37:48.510Z,39.2
2023-05-02T05:38:36.164Z,39.3
2023-05-02T05:39:23.585Z,39.3
2023-05-02T05:40:11.104Z,39.4
2023-05-02T05:40:58.516Z,39.6
2023-05-02T05:41:45.947Z,39.7
2023-05-02T05:42:33.361Z,39.9
2023-05-02T05:43:20.797Z,39.9
2023-05-02T05:44:08.262Z,39.9
2023-05-02T05:44:55.658Z,40.0
2023-05-02T05:45:43.126Z,40.2
2023-05-02T05:46:30.567Z,40.3
2023-05-02T05:47:18.045Z,40.2
2023-05-02T05:48:05.518Z,40.2
2023-05-02T05:48:52.937Z,40.2
2023-05-02T05:49:40.353Z,40.2
2023-05-02T05:50:27.793Z,40.2
2023-05-02T05:51:15.212Z,40.2
2023-05-02T05:52:02.687Z,40.1
2023-05-02T05:52:50.102Z,40.0
2023-05-02T05:53:37.534Z,40.1
2023-05-02T05:54:24.997Z,40.1
2023-05-02T05:55:12.413Z,40.1
2023-05-02T05:55:59.800Z,40.0
2023-05-02T05:56:47.212Z,40.1
2023-05-02T05:57:34.699Z,40.7
2023-05-02T05:58:22.134Z,40.2
2023-05-02T05:59:09.683Z,40.3
2023-05-02T05:59:57.310Z,40.3
2023-05-02T06:00:44.860Z,40.2
2023-05-02T06:01:32.417Z,40.2
2023-05-02T06:02:19.967Z,40.2
2023-05-02T06:03:09.621Z,40.6
2023-05-02T06:03:57.678Z,40.0
2023-05-02T06:04:45.248Z,40.0
2023-05-02T06:05:32.966Z,40.0
2023-05-02T06:06:20.598Z,40.1
2023-05-02T06:07:08.028Z,40.1
2023-05-02T06:07:55.451Z,40.1
2023-05-02T06:08:42.952Z,40.2
2023-05-02T06:09:30.416Z,40.2
2023-05-02T06:10:17.836Z,40.3
2023-05-02T06:11:05.301Z,40.3
2023-05-02T06:11:52.754Z,40.4
2023-05-02T06:12:40.194Z,40.5
2023-05-02T06:13:27.626Z,40.4
2023-05-02T06:14:15.058Z,40.4
2023-05-02T06:15:02.493Z,40.5
2023-05-02T06:15:50.006Z,40.6
2023-05-02T06:16:37.531Z,40.6
2023-05-02T06:17:24.986Z,40.5
2023-05-02T06:18:12.469Z,40.6
2023-05-02T06:18:59.885Z,40.8
2023-05-02T06:19:47.352Z,40.8
2023-05-02T06:20:34.786Z,41.2
2023-05-02T06:21:22.221Z,40.8
2023-05-02T06:22:09.686Z,40.8
2023-05-02T06:22:57.153Z,40.9
2023-05-02T06:23:44.595Z,40.9
2023-05-02T06:24:32.001Z,40.8
2023-05-02T06:25:19.547Z,40.8
2023-05-02T06:26:07.022Z,40.7
2023-05-02T06:26:54.424Z,40.8
2023-05-02T06:27:41.864Z,40.8
2023-05-02T06:28:29.278Z,40.9
2023-05-02T06:29:16.726Z,41.0
2023-05-02T06:30:04.303Z,40.9
2023-05-02T06:30:51.773Z,41.0
2023-05-02T06:31:39.368Z,41.0
2023-05-02T06:32:26.954Z,41.0
2023-05-02T06:33:14.425Z,40.9
2023-05-02T06:34:01.849Z,40.9
2023-05-02T06:34:49.286Z,40.9
2023-05-02T06:35:36.697Z,40.9
2023-05-02T06:36:24.100Z,41.0
2023-05-02T06:37:11.520Z,41.0
2023-05-02T06:37:58.905Z,41.1
2023-05-02T06:38:46.352Z,41.1
2023-05-02T06:39:33.785Z,41.2
2023-05-02T06:40:21.268Z,41.3
2023-05-02T06:41:08.729Z,41.3
2023-05-02T06:41:56.140Z,41.3
2023-05-02T06:42:43.617Z,41.2
2023-05-02T06:43:31.127Z,41.2
2023-05-02T06:44:18.575Z,41.3
2023-05-02T06:45:06.046Z,41.3
2023-05-02T06:45:53.470Z,41.3
2023-05-02T06:46:40.955Z,41.2
2023-05-02T06:47:28.422Z,41.4
2023-05-02T06:48:15.918Z,41.4
2023-05-02T06:49:03.320Z,41.2
2023-05-02T06:49:50.765Z,41.2
2023-05-02T06:50:38.176Z,41.8
2023-05-02T06:51:25.636Z,41.3
2023-05-02T06:52:13.050Z,41.4
2023-05-02T06:53:00.482Z,41.3
2023-05-02T06:53:48.071Z,41.2
2023-05-02T06:54:35.644Z,41.1
2023-05-02T06:55:23.165Z,41.0
2023-05-02T06:56:10.891Z,41.0
2023-05-02T06:56:58.322Z,41.0
2023-05-02T06:57:46.236Z,41.1
2023-05-02T06:58:34.155Z,41.1
2023-05-02T06:59:21.614Z,41.2
2023-05-02T07:00:09.106Z,41.6
2023-05-02T07:00:56.543Z,41.4
2023-05-02T07:01:44.050Z,41.4
2023-05-02T07:02:31.492Z,41.4
2023-05-02T07:03:18.938Z,41.4
2023-05-02T07:04:06.638Z,40.9
2023-05-02T07:04:54.152Z,40.8
2023-05-02T07:05:41.833Z,40.7
2023-05-02T07:06:29.334Z,40.7
2023-05-02T07:07:16.775Z,40.6
2023-05-02T07:08:04.176Z,40.7
2023-05-02T07:08:51.584Z,40.7
2023-05-02T07:09:39.024Z,40.7
2023-05-02T07:10:26.482Z,40.7
2023-05-02T07:11:14.072Z,40.7
2023-05-02T07:12:01.992Z,40.7
2023-05-02T07:12:50.507Z,40.7
2023-05-02T07:13:37.948Z,40.7
2023-05-02T07:14:25.377Z,40.7
2023-05-02T07:15:12.798Z,40.7
2023-05-02T07:16:00.256Z,40.7
2023-05-02T07:16:47.815Z,41.5
2023-05-02T07:17:35.333Z,41.0
2023-05-02T07:18:22.755Z,41.0
2023-05-02T07:19:10.195Z,41.1
2023-05-02T07:19:57.676Z,41.0
2023-05-02T07:20:45.110Z,41.3
2023-05-02T07:21:32.556Z,40.8
2023-05-02T07:22:19.981Z,40.8
2023-05-02T07:23:07.447Z,40.9
2023-05-02T07:23:54.887Z,40.9
2023-05-02T07:24:42.329Z,41.0
2023-05-02T07:25:29.824Z,41.2
2023-05-02T07:26:17.285Z,41.2
2023-05-02T07:27:04.719Z,41.2
2023-05-02T07:27:52.189Z,41.2
2023-05-02T07:28:39.639Z,41.1
2023-05-02T07:29:27.046Z,41.0
2023-05-02T07:30:14.461Z,41.0
2023-05-02T07:31:01.887Z,40.9
2023-05-02T07:31:49.310Z,40.9
2023-05-02T07:32:36.819Z,40.8
2023-05-02T07:33:24.351Z,40.8
2023-05-02T07:34:11.834Z,40.8
2023-05-02T07:34:59.441Z,40.7
2023-05-02T07:35:47.227Z,40.7
2023-05-02T07:36:34.663Z,40.8
2023-05-02T07:37:22.091Z,40.8
2023-05-02T07:38:09.952Z,40.8
2023-05-02T07:38:57.394Z,40.8
2023-05-02T07:39:44.801Z,40.8
2023-05-02T07:40:32.226Z,40.9
2023-05-02T07:41:19.638Z,40.9
2023-05-02T07:42:07.076Z,40.9
2023-05-02T07:42:54.518Z,40.8
2023-05-02T07:43:41.976Z,40.7
2023-05-02T07:44:29.414Z,40.6
2023-05-02T07:45:16.857Z,40.5
2023-05-02T07:46:04.387Z,41.0
2023-05-02T07:46:52.011Z,40.5
2023-05-02T07:47:39.668Z,40.5
2023-05-02T07:48:27.995Z,40.5
2023-05-02T07:49:15.505Z,40.5
2023-05-02T07:50:03.184Z,40.5
2023-05-02T07:50:50.932Z,40.5
2023-05-02T07:51:38.365Z,40.5
2023-05-02T07:52:34.565Z,40.5
2023-05-02T07:53:21.985Z,40.4
2023-05-02T07:54:09.390Z,40.4
2023-05-02T07:54:56.872Z,40.6
2023-05-02T07:55:44.324Z,40.6
2023-05-02T07:56:31.735Z,40.9
2023-05-02T07:57:19.721Z,41.0
2023-05-02T07:58:07.155Z,41.0
2023-05-02T07:58:54.594Z,41.0
2023-05-02T07:59:42.029Z,41.0
2023-05-02T08:00:29.454Z,41.1
2023-05-02T08:01:16.910Z,40.7
2023-05-02T08:02:04.352Z,39.5
2023-05-02T08:02:52.118Z,38.6
2023-05-02T08:03:39.820Z,37.7
2023-05-02T08:04:27.476Z,36.7
2023-05-02T08:05:15.087Z,36.5
2023-05-02T08:06:02.628Z,36.7
2023-05-02T08:06:50.410Z,36.2
2023-05-02T08:07:37.974Z,36.0
2023-05-02T08:08:25.398Z,36.2
2023-05-02T08:09:14.213Z,36.7
2023-05-02T08:10:01.740Z,36.8
2023-05-02T08:10:49.449Z,36.9
2023-05-02T08:11:36.959Z,37.1
2023-05-02T08:12:24.355Z,37.3
2023-05-02T08:13:11.777Z,37.4
2023-05-02T08:13:59.176Z,37.7
2023-05-02T08:14:46.599Z,37.6
2023-05-02T08:15:33.996Z,37.4
2023-05-02T08:16:21.487Z,37.4
2023-05-02T08:17:08.996Z,38.0
2023-05-02T08:17:56.474Z,38.3
2023-05-02T08:18:43.952Z,38.1
2023-05-02T08:19:31.376Z,37.4
2023-05-02T08:20:18.796Z,37.7
2023-05-02T08:21:06.237Z,36.9
2023-05-02T08:21:53.659Z,36.7
2023-05-02T08:22:41.094Z,36.4
2023-05-02T08:23:28.523Z,36.5
2023-05-02T08:24:15.942Z,36.0
2023-05-02T08:25:03.360Z,35.4
2023-05-02T08:25:50.752Z,34.8
2023-05-02T08:26:38.169Z,34.6
2023-05-02T08:27:25.588Z,34.7
2023-05-02T08:28:13.034Z,35.2
2023-05-02T08:29:00.453Z,34.9
2023-05-02T08:29:47.885Z,34.6
2023-05-02T08:30:35.296Z,34.2
2023-05-02T08:31:22.801Z,34.0
2023-05-02T08:32:10.598Z,33.7
2023-05-02T08:32:58.154Z,33.6
2023-05-02T08:33:45.627Z,33.5
2023-05-02T08:34:33.037Z,33.7
2023-05-02T08:35:20.441Z,33.4
2023-05-02T08:36:07.845Z,33.0
2023-05-02T08:36:56.848Z,33.4
2023-05-02T08:37:45.749Z,33.6
2023-05-02T08:38:33.183Z,33.3
2023-05-02T08:39:20.600Z,33.3
2023-05-02T08:40:08.029Z,33.3
2023-05-02T08:40:55.471Z,33.7
2023-05-02T08:41:42.871Z,33.9
2023-05-02T08:42:30.369Z,34.2
2023-05-02T08:43:17.863Z,34.2
2023-05-02T08:44:05.292Z,33.9
2023-05-02T08:44:52.916Z,33.6
2023-05-02T08:45:40.337Z,33.6
2023-05-02T08:46:27.900Z,33.7
2023-05-02T08:47:15.502Z,33.5
2023-05-02T08:48:03.028Z,33.7
2023-05-02T08:48:50.710Z,34.3
2023-05-02T08:49:38.112Z,34.6
2023-05-02T08:50:25.554Z,34.6
2023-05-02T08:51:13.047Z,34.8
2023-05-02T08:52:00.482Z,34.4
2023-05-02T08:52:47.891Z,34.2
2023-05-02T08:53:35.348Z,34.2
2023-05-02T08:54:22.791Z,34.5
2023-05-02T08:55:10.352Z,34.8
2023-05-02T08:55:57.772Z,34.8
2023-05-02T08:56:45.699Z,34.1
2023-05-02T08:57:33.141Z,33.7
2023-05-02T08:58:20.676Z,33.7
2023-05-02T08:59:08.107Z,33.9
2023-05-02T08:59:55.519Z,33.9
2023-05-02T09:00:43.065Z,33.9
2023-05-02T09:01:31.064Z,34.2
2023-05-02T09:02:18.589Z,34.3
2023-05-02T09:03:06.088Z,34.4
2023-05-02T09:03:53.609Z,34.4
2023-05-02T09:04:41.597Z,34.6
2023-05-02T09:05:29.392Z,34.8
2023-05-02T09:06:16.866Z,35.1
2023-05-02T09:07:04.315Z,35.2
2023-05-02T09:07:51.755Z,34.9
2023-05-02T09:08:39.160Z,35.1
2023-05-02T09:09:26.592Z,35.1
2023-05-02T09:10:14.047Z,34.8
2023-05-02T09:11:01.479Z,34.3
2023-05-02T09:11:48.912Z,34.5
2023-05-02T09:12:36.318Z,34.7
2023-05-02T09:13:23.732Z,34.8
2023-05-02T09:14:11.169Z,34.8
2023-05-02T09:14:58.697Z,34.7
2023-05-02T09:15:46.200Z,34.1
2023-05-02T09:16:33.762Z,33.8
2023-05-02T09:17:21.278Z,33.6
2023-05-02T09:18:08.954Z,33.1
2023-05-02T09:18:56.404Z,33.1
2023-05-02T09:19:43.821Z,33.7
2023-05-02T09:20:31.248Z,34.0
2023-05-02T09:21:20.671Z,34.1
2023-05-02T09:22:08.746Z,33.9
2023-05-02T09:22:56.167Z,34.2
2023-05-02T09:23:43.615Z,36.3
2023-05-02T09:24:31.118Z,37.8
2023-05-02T09:25:18.805Z,37.7
2023-05-02T09:26:06.499Z,37.2
2023-05-02T09:26:53.911Z,37.0
2023-05-02T09:27:41.317Z,36.7
2023-05-02T09:28:28.925Z,36.5
2023-05-02T09:29:16.359Z,36.4
2023-05-02T09:30:03.803Z,36.2
2023-05-02T09:30:51.271Z,35.4
2023-05-02T09:32:29.030Z,35.2
2023-05-02T09:33:17.549Z,34.3
2023-05-02T09:34:05.611Z,33.7
2023-05-02T09:34:53.044Z,33.3
2023-05-02T09:35:40.448Z,32.8
2023-05-02T09:36:27.901Z,32.2
2023-05-02T09:37:15.341Z,31.7
2023-05-02T09:38:02.788Z,31.4
2023-05-02T09:38:50.220Z,31.4
2023-05-02T09:39:37.698Z,31.4
2023-05-02T09:40:25.158Z,31.7
2023-05-02T09:41:12.804Z,31.0
2023-05-02T09:42:00.316Z,31.2
2023-05-02T09:42:47.914Z,31.1
2023-05-02T09:43:35.389Z,31.3
2023-05-02T09:44:22.865Z,31.0
2023-05-02T09:45:10.321Z,31.3
2023-05-02T09:45:57.784Z,31.8
2023-05-02T09:46:45.428Z,32.3
2023-05-02T09:47:32.973Z,32.4
2023-05-02T09:48:20.708Z,33.0
2023-05-02T09:49:08.158Z,33.2
2023-05-02T09:49:55.561Z,32.9
2023-05-02T09:50:42.981Z,32.4
2023-05-02T09:51:30.412Z,31.9
2023-05-02T09:52:17.858Z,31.8
2023-05-02T09:53:05.395Z,31.5
2023-05-02T09:53:52.821Z,31.4
2023-05-02T09:54:40.219Z,31.5
2023-05-02T09:55:27.618Z,31.5
2023-05-02T09:56:15.051Z,31.4
2023-05-02T09:57:02.503Z,31.6
2023-05-02T09:57:49.918Z,31.6
2023-05-02T09:58:37.358Z,31.6
2023-05-02T09:59:24.811Z,31.7
2023-05-02T10:00:12.244Z,31.7
2023-05-02T10:00:59.672Z,31.5
2023-05-02T10:01:47.100Z,31.7
2023-05-02T10:02:36.010Z,32.8
2023-05-02T10:03:23.546Z,33.1
2023-05-02T10:04:11.179Z,32.9
2023-05-02T10:04:59.195Z,32.4
2023-05-02T10:05:46.923Z,32.0
2023-05-02T10:06:34.351Z,31.5
2023-05-02T10:07:21.792Z,31.5
2023-05-02T10:08:09.262Z,31.5
2023-05-02T10:08:56.665Z,31.6
2023-05-02T10:09:44.113Z,31.8
2023-05-02T10:10:31.623Z,31.8
2023-05-02T10:11:19.156Z,31.4
2023-05-02T10:12:06.668Z,31.1
2023-05-02T10:12:54.291Z,31.4
2023-05-02T10:13:41.946Z,31.3
2023-05-02T10:14:29.795Z,30.7
2023-05-02T10:15:17.372Z,30.6
2023-05-02T10:16:04.843Z,31.0
2023-05-02T10:16:52.565Z,31.4
2023-05-02T10:17:40.123Z,31.3
2023-05-02T10:18:27.609Z,31.4
2023-05-02T10:19:15.120Z,31.0
2023-05-02T10:20:02.542Z,31.6
2023-05-02T10:20:49.952Z,31.9
2023-05-02T10:21:37.353Z,31.8
2023-05-02T10:22:24.747Z,31.7
2023-05-02T10:23:12.159Z,31.9
2023-05-02T10:23:59.567Z,32.1
2023-05-02T10:24:47.046Z,32.5
2023-05-02T10:25:34.487Z,32.8
2023-05-02T10:26:21.933Z,32.6
2023-05-02T10:27:09.429Z,32.6
2023-05-02T10:27:56.834Z,32.1
2023-05-02T10:28:44.281Z,31.9
2023-05-02T10:29:31.803Z,32.0
2023-05-02T10:30:19.263Z,32.2
2023-05-02T10:31:06.703Z,32.6
2023-05-02T10:31:54.227Z,32.7
2023-05-02T10:32:41.688Z,32.9
2023-05-02T10:33:29.106Z,33.0
2023-05-02T10:34:16.536Z,32.9
2023-05-02T10:35:03.987Z,32.9
2023-05-02T10:35:51.493Z,33.0
2023-05-02T10:36:39.060Z,33.0
2023-05-02T10:37:26.483Z,33.5
2023-05-02T10:38:13.946Z,33.0
2023-05-02T10:39:01.363Z,32.6
2023-05-02T10:39:48.774Z,31.3
2023-05-02T10:40:36.177Z,30.9
2023-05-02T10:41:23.609Z,31.0
2023-05-02T10:42:11.033Z,31.4
2023-05-02T10:42:58.474Z,31.6
2023-05-02T10:43:45.932Z,31.6
2023-05-02T10:44:33.335Z,31.4
2023-05-02T10:45:20.807Z,31.7
2023-05-02T10:46:08.242Z,32.0
2023-05-02T10:46:55.781Z,31.6
2023-05-02T10:47:43.371Z,31.1
2023-05-02T10:48:31.021Z,31.1
2023-05-02T10:49:18.594Z,31.5
2023-05-02T10:50:06.041Z,31.8
2023-05-02T10:50:53.440Z,32.5
2023-05-02T10:51:40.864Z,32.1
2023-05-02T10:52:28.285Z,32.0
2023-05-02T10:53:15.691Z,31.8
2023-05-02T10:54:03.123Z,31.7
2023-05-02T10:54:50.551Z,31.7
2023-05-02T10:55:37.997Z,31.6
2023-05-02T10:56:26.484Z,31.8
2023-05-02T10:57:15.966Z,31.9
2023-05-02T10:58:03.414Z,31.5
2023-05-02T10:58:50.849Z,31.2
2023-05-02T10:59:38.270Z,31.1
2023-05-02T11:00:25.686Z,30.7
2023-05-02T11:01:13.192Z,30.5
2023-05-02T11:02:00.650Z,29.5
2023-05-02T11:02:48.121Z,29.4
2023-05-02T11:03:35.654Z,29.4
2023-05-02T11:04:23.299Z,29.4
2023-05-02T11:05:10.727Z,29.3
2023-05-02T11:05:58.240Z,29.4
2023-05-02T11:06:45.802Z,29.4
2023-05-02T11:07:33.365Z,29.6
2023-05-02T11:08:23.240Z,29.7
2023-05-02T11:09:11.006Z,29.7
2023-05-02T11:09:58.473Z,29.8
2023-05-02T11:10:45.925Z,30.0
2023-05-02T11:11:33.391Z,30.0
2023-05-02T11:12:21.320Z,29.7
2023-05-02T11:13:08.950Z,29.6
2023-05-02T11:13:56.382Z,29.7
2023-05-02T11:14:43.836Z,29.7
2023-05-02T11:15:31.237Z,30.0
2023-05-02T11:16:18.688Z,29.8
2023-05-02T11:17:06.170Z,29.9
2023-05-02T11:17:53.629Z,30.0
2023-05-02T11:18:41.261Z,29.9
2023-05-02T11:19:29.833Z,29.8
2023-05-02T11:20:18.709Z,30.0
2023-05-02T11:21:06.127Z,30.5
2023-05-02T11:21:53.767Z,31.3
2023-05-02T11:22:41.196Z,31.8
2023-05-02T11:23:28.619Z,32.0
2023-05-02T11:24:16.062Z,32.1
2023-05-02T11:25:03.521Z,31.9
2023-05-02T11:25:51.030Z,32.2
2023-05-02T11:26:38.478Z,32.2
2023-05-02T11:27:25.917Z,32.4
2023-05-02T11:28:13.344Z,32.5
2023-05-02T11:29:00.957Z,32.7
2023-05-02T11:29:48.430Z,32.6
2023-05-02T11:30:35.873Z,32.7
2023-05-02T11:31:23.274Z,32.6
2023-05-02T11:32:10.705Z,32.5
2023-05-02T11:32:58.164Z,32.3
2023-05-02T11:33:45.631Z,32.4
2023-05-02T11:34:33.195Z,32.7
2023-05-02T11:35:20.666Z,32.8
2023-05-02T11:36:08.405Z,32.9
2023-05-02T11:36:55.900Z,33.0
2023-05-02T11:37:43.313Z,33.1
2023-05-02T11:38:30.944Z,32.9
2023-05-02T11:39:18.469Z,31.4
2023-05-02T11:40:05.877Z,30.8
2023-05-02T11:40:53.454Z,30.7
2023-05-02T11:41:40.918Z,30.9
2023-05-02T11:42:28.494Z,31.0
2023-05-02T11:43:16.219Z,31.3
2023-05-02T11:44:03.683Z,31.9
2023-05-02T11:44:51.114Z,32.2
2023-05-02T11:45:38.586Z,32.0
2023-05-02T11:46:26.019Z,32.0
2023-05-02T11:47:13.482Z,32.3
2023-05-02T11:48:00.949Z,32.1
2023-05-02T11:48:48.412Z,31.8
2023-05-02T11:49:35.856Z,31.5
2023-05-02T11:50:23.367Z,31.8
2023-05-02T11:51:10.781Z,32.1
2023-05-02T11:51:58.208Z,32.3
2023-05-02T11:52:45.625Z,32.1
2023-05-02T11:53:33.031Z,31.7
2023-05-02T11:54:20.433Z,31.9
2023-05-02T11:55:08.709Z,31.7
2023-05-02T11:55:56.896Z,31.9
2023-05-02T11:56:44.544Z,32.1
2023-05-02T11:57:31.982Z,32.4
2023-05-02T11:58:19.421Z,32.4
2023-05-02T11:59:06.841Z,32.6
2023-05-02T11:59:54.273Z,32.8
2023-05-02T12:00:41.687Z,32.7
2023-05-02T12:01:29.144Z,32.9
2023-05-02T12:02:16.616Z,33.1
2023-05-02T12:03:04.246Z,32.5
2023-05-02T12:03:52.271Z,32.1
2023-05-02T12:04:39.751Z,32.0
2023-05-02T12:05:27.208Z,31.4
2023-05-02T12:06:15.152Z,31.0
2023-05-02T12:07:02.908Z,31.1
2023-05-02T12:07:50.325Z,31.4
2023-05-02T12:08:39.064Z,31.8
2023-05-02T12:09:26.500Z,32.2
2023-05-02T12:10:13.924Z,32.6
2023-05-02T12:11:01.350Z,32.9
2023-05-02T12:11:48.785Z,33.0
2023-05-02T12:12:36.251Z,32.9
2023-05-02T12:13:23.670Z,32.8
2023-05-02T12:14:11.109Z,32.4
2023-05-02T12:14:58.573Z,31.3
2023-05-02T12:15:46.000Z,30.2
2023-05-02T12:16:33.664Z,30.0
2023-05-02T12:17:21.137Z,29.9
2023-05-02T12:18:08.584Z,30.0